createdAt,value
2018-10-21T00:02:21.157Z,99.90
2018-10-21T00:06:25.847Z,99.90
2018-10-21T00:10:31.098Z,99.90
2018-10-21T00:14:37.343Z,99.90
2018-10-21T00:19:13.212Z,99.90
2018-10-21T00:23:17.875Z,99.90
2018-10-21T00:27:22.627Z,99.90
2018-10-21T00:31:27.293Z,99.90
2018-10-21T00:35:32.044Z,99.90
2018-10-21T00:39:36.741Z,99.90
2018-10-21T00:43:41.473Z,99.90
2018-10-21T00:47:46.146Z,99.90
2018-10-21T00:51:50.839Z,99.90
2018-10-21T00:55:55.500Z,99.90
2018-10-21T01:00:00.448Z,99.90
2018-10-21T01:04:05.938Z,99.90
2018-10-21T01:08:10.768Z,99.90
2018-10-21T01:12:16.448Z,99.90
2018-10-21T01:16:21.687Z,99.90
2018-10-21T01:20:26.353Z,99.90
2018-10-21T01:24:31.320Z,99.90
2018-10-21T01:28:36.082Z,99.90
2018-10-21T01:32:40.849Z,99.90
2018-10-21T01:36:45.615Z,99.90
2018-10-21T01:40:52.589Z,99.90
2018-10-21T01:44:57.428Z,99.90
2018-10-21T01:49:02.391Z,99.90
2018-10-21T01:53:08.251Z,99.90
2018-10-21T01:57:14.019Z,99.90
2018-10-21T02:01:18.646Z,99.90
2018-10-21T02:05:23.441Z,99.90
2018-10-21T02:09:28.119Z,99.90
2018-10-21T02:13:34.039Z,99.90
2018-10-21T02:17:38.807Z,99.90
2018-10-21T02:21:43.510Z,99.90
2018-10-21T02:25:48.245Z,99.90
2018-10-21T02:29:52.872Z,99.90
2018-10-21T02:33:57.627Z,99.90
2018-10-21T02:38:02.798Z,99.90
2018-10-21T02:42:07.590Z,99.90
2018-10-21T02:46:12.327Z,99.80
2018-10-21T02:50:17.429Z,99.80
2018-10-21T02:54:24.239Z,99.80
2018-10-21T02:58:29.258Z,99.90
2018-10-21T03:02:34.271Z,99.90
2018-10-21T03:06:39.018Z,99.90
2018-10-21T03:10:43.770Z,99.90
2018-10-21T03:14:48.658Z,99.90
2018-10-21T03:18:53.406Z,99.90
2018-10-21T03:22:58.689Z,99.90
2018-10-21T03:27:03.836Z,99.90
2018-10-21T03:31:08.644Z,99.90
2018-10-21T03:35:13.280Z,99.90
2018-10-21T03:39:17.943Z,99.90
2018-10-21T03:43:22.624Z,99.90
2018-10-21T03:47:27.411Z,99.90
2018-10-21T03:51:32.723Z,99.90
2018-10-21T03:55:39.395Z,99.90
2018-10-21T03:59:44.227Z,99.90
2018-10-21T04:03:48.911Z,99.90
2018-10-21T04:07:53.584Z,99.90
2018-10-21T04:11:58.291Z,99.90
2018-10-21T04:16:04.894Z,99.90
2018-10-21T04:20:09.818Z,99.90
2018-10-21T04:24:14.486Z,99.90
2018-10-21T04:28:19.450Z,99.90
2018-10-21T04:32:24.189Z,99.90
2018-10-21T04:36:34.646Z,99.90
2018-10-21T04:40:39.497Z,99.90
2018-10-21T04:44:44.190Z,99.90
2018-10-21T04:48:48.880Z,99.90
2018-10-21T04:52:53.643Z,99.90
2018-10-21T04:56:58.578Z,99.90
2018-10-21T05:01:03.752Z,99.90
2018-10-21T05:05:09.623Z,99.90
2018-10-21T05:09:14.427Z,99.90
2018-10-21T05:13:19.221Z,99.90
2018-10-21T05:17:23.902Z,99.90
2018-10-21T05:21:29.190Z,99.90
2018-10-21T05:25:34.066Z,99.90
2018-10-21T05:29:39.049Z,99.90
2018-10-21T05:33:43.707Z,99.90
2018-10-21T05:37:48.956Z,99.90
2018-10-21T05:41:53.649Z,99.90
2018-10-21T05:45:58.435Z,99.90
2018-10-21T05:50:04.062Z,99.90
2018-10-21T05:54:10.076Z,99.90
2018-10-21T05:58:14.792Z,99.90
2018-10-21T06:02:19.834Z,99.90
2018-10-21T06:06:24.471Z,99.90
2018-10-21T06:10:29.552Z,99.90
2018-10-21T06:14:34.750Z,99.90
2018-10-21T06:18:39.843Z,99.90
2018-10-21T06:22:46.084Z,99.90
2018-10-21T06:26:51.004Z,99.90
2018-10-21T06:30:55.650Z,99.90
2018-10-21T06:35:01.273Z,99.90
2018-10-21T06:39:07.154Z,99.90
2018-10-21T06:43:12.113Z,99.90
2018-10-21T06:47:16.922Z,99.90
2018-10-21T06:51:21.658Z,99.90
2018-10-21T06:55:26.416Z,99.90
2018-10-21T06:59:31.624Z,99.90
2018-10-21T07:03:36.536Z,99.90
2018-10-21T07:07:41.342Z,99.90
2018-10-21T07:11:46.039Z,99.90
2018-10-21T07:15:50.752Z,99.90
2018-10-21T07:19:55.395Z,99.90
2018-10-21T07:24:01.688Z,99.90
2018-10-21T07:28:06.482Z,99.90
2018-10-21T07:32:11.378Z,99.90
2018-10-21T07:36:16.125Z,99.90
2018-10-21T07:40:20.952Z,99.90
2018-10-21T07:44:25.691Z,99.90
2018-10-21T07:48:32.110Z,99.90
2018-10-21T07:52:37.132Z,99.90
2018-10-21T07:56:41.806Z,99.90
2018-10-21T08:00:46.576Z,99.90
2018-10-21T08:04:51.224Z,99.90
2018-10-21T08:08:55.987Z,99.90
2018-10-21T08:13:00.823Z,99.90
2018-10-21T08:17:05.761Z,99.90
2018-10-21T08:21:10.532Z,99.90
2018-10-21T08:25:15.286Z,99.90
2018-10-21T08:29:19.955Z,99.90
2018-10-21T08:33:24.771Z,99.90
2018-10-21T08:37:30.049Z,99.90
2018-10-21T08:41:35.126Z,99.90
2018-10-21T08:45:39.811Z,99.90
2018-10-21T08:49:44.522Z,99.80
2018-10-21T08:53:49.151Z,99.50
2018-10-21T08:57:53.817Z,99.90
2018-10-21T09:01:58.597Z,99.90
2018-10-21T09:06:04.179Z,99.80
2018-10-21T09:10:11.922Z,99.90
2018-10-21T09:14:16.584Z,99.90
2018-10-21T09:18:21.341Z,99.90
2018-10-21T09:22:26.029Z,99.40
2018-10-21T09:26:30.795Z,99.80
2018-10-21T09:30:35.506Z,99.10
2018-10-21T09:34:40.155Z,99.60
2018-10-21T09:38:44.825Z,98.50
2018-10-21T09:42:50.074Z,98.50
2018-10-21T09:46:54.732Z,98.90
2018-10-21T09:51:00.227Z,98.90
2018-10-21T09:55:05.526Z,99.10
2018-10-21T09:59:10.193Z,98.70
2018-10-21T10:03:15.044Z,99.10
2018-10-21T10:07:19.835Z,98.10
2018-10-21T10:11:24.711Z,97.90
2018-10-21T10:15:29.550Z,97.90
2018-10-21T10:19:34.394Z,98.60
2018-10-21T10:23:39.058Z,97.50
2018-10-21T10:27:43.764Z,97.20
2018-10-21T10:31:48.444Z,97.40
2018-10-21T10:35:53.138Z,97.60
2018-10-21T10:39:57.860Z,96.80
2018-10-21T10:44:03.597Z,97.60
2018-10-21T10:48:08.484Z,97.70
2018-10-21T10:52:13.313Z,96.60
2018-10-21T10:56:17.935Z,97.00
2018-10-21T11:00:22.694Z,96.40
2018-10-21T11:04:27.416Z,97.20
2018-10-21T11:08:32.477Z,96.70
2018-10-21T11:12:37.171Z,96.50
2018-10-21T11:16:41.914Z,95.60
2018-10-21T11:20:46.707Z,95.60
2018-10-21T11:24:51.449Z,95.90
2018-10-21T11:28:56.364Z,95.50
2018-10-21T11:33:01.179Z,95.30
2018-10-21T11:37:05.977Z,94.90
2018-10-21T11:41:10.619Z,95.20
2018-10-21T11:45:15.390Z,95.40
2018-10-21T11:49:20.060Z,95.40
2018-10-21T11:53:24.727Z,95.30
2018-10-21T11:57:29.573Z,95.20
2018-10-21T12:01:34.712Z,95.20
2018-10-21T12:05:39.954Z,95.10
2018-10-21T12:09:44.665Z,95.00
2018-10-21T12:13:49.329Z,95.00
2018-10-21T12:17:54.154Z,94.80
2018-10-21T12:21:59.014Z,95.00
2018-10-21T12:26:04.339Z,95.10
2018-10-21T12:30:09.479Z,95.30
2018-10-21T12:34:14.308Z,95.10
2018-10-21T12:38:18.941Z,95.20
2018-10-21T12:42:23.592Z,94.80
2018-10-21T12:46:28.641Z,94.90
2018-10-21T12:50:34.207Z,95.00
2018-10-21T12:54:39.064Z,95.00
2018-10-21T12:58:43.690Z,95.20
2018-10-21T13:02:48.368Z,95.30
2018-10-21T13:06:53.238Z,95.20
2018-10-21T13:10:58.065Z,95.00
2018-10-21T13:15:03.192Z,95.20
2018-10-21T13:19:08.062Z,95.10
2018-10-21T13:23:12.732Z,94.90
2018-10-21T13:27:17.941Z,95.30
2018-10-21T13:31:22.599Z,95.00
2018-10-21T13:35:27.356Z,95.00
2018-10-21T13:39:32.354Z,94.70
2018-10-21T13:43:37.193Z,94.40
2018-10-21T13:47:41.858Z,94.60
2018-10-21T13:51:46.693Z,94.40
2018-10-21T13:55:51.273Z,94.40
2018-10-21T13:59:55.982Z,94.40
2018-10-21T14:04:01.122Z,94.30
2018-10-21T14:08:05.859Z,94.30
2018-10-21T14:12:11.549Z,94.30
2018-10-21T14:16:16.442Z,94.20
2018-10-21T14:20:21.023Z,94.30
2018-10-21T14:24:25.720Z,94.40
2018-10-21T14:28:30.552Z,94.10
2018-10-21T14:32:35.294Z,94.20
2018-10-21T14:36:39.991Z,94.50
2018-10-21T14:40:44.691Z,94.60
2018-10-21T14:44:49.372Z,94.70
2018-10-21T14:48:54.129Z,94.40
2018-10-21T14:52:58.879Z,94.70
2018-10-21T14:57:04.051Z,94.70
2018-10-21T15:01:08.637Z,94.70
2018-10-21T15:05:13.771Z,94.70
2018-10-21T15:09:18.515Z,94.90
2018-10-21T15:13:23.147Z,94.90
2018-10-21T15:17:27.889Z,95.20
2018-10-21T15:21:32.735Z,94.70
2018-10-21T15:25:37.734Z,94.60
2018-10-21T15:29:42.415Z,94.60
2018-10-21T15:33:47.092Z,94.80
2018-10-21T15:37:51.906Z,94.70
2018-10-21T15:41:56.552Z,94.70
2018-10-21T15:46:01.534Z,94.70
2018-10-21T15:50:06.648Z,94.80
2018-10-21T15:54:11.475Z,94.90
2018-10-21T15:58:16.330Z,95.00
2018-10-21T16:02:21.074Z,94.90
2018-10-21T16:06:25.729Z,95.10
2018-10-21T16:10:31.611Z,95.10
2018-10-21T16:14:36.520Z,95.30
2018-10-21T16:18:41.169Z,95.30
2018-10-21T16:22:46.316Z,95.50
2018-10-21T16:26:52.117Z,95.50
2018-10-21T16:30:57.101Z,95.40
2018-10-21T16:35:02.378Z,95.50
2018-10-21T16:39:09.220Z,95.50
2018-10-21T16:43:14.104Z,95.50
2018-10-21T16:47:19.046Z,95.40
2018-10-21T16:51:23.848Z,95.50
2018-10-21T16:55:28.629Z,95.50
2018-10-21T16:59:34.077Z,95.60
2018-10-21T17:03:38.803Z,95.60
2018-10-21T17:07:43.526Z,95.70
2018-10-21T17:11:48.231Z,95.80
2018-10-21T17:15:52.952Z,95.70
2018-10-21T17:19:57.629Z,95.80
2018-10-21T17:24:02.732Z,95.80
2018-10-21T17:28:07.726Z,95.90
2018-10-21T17:32:12.420Z,95.80
2018-10-21T17:36:17.141Z,95.80
2018-10-21T17:40:21.836Z,95.70
2018-10-21T17:44:26.503Z,95.70
2018-10-21T17:48:31.522Z,95.90
2018-10-21T17:52:36.809Z,95.90
2018-10-21T17:56:46.942Z,95.90
2018-10-21T18:00:51.619Z,95.90
2018-10-21T18:04:56.639Z,96.00
2018-10-21T18:09:01.422Z,96.00
2018-10-21T18:13:07.435Z,96.10
2018-10-21T18:17:12.154Z,96.20
2018-10-21T18:21:17.322Z,96.30
2018-10-21T18:25:22.128Z,96.30
2018-10-21T18:29:27.107Z,96.40
2018-10-21T18:33:32.525Z,96.80
2018-10-21T18:37:38.379Z,96.70
2018-10-21T18:41:43.132Z,96.80
2018-10-21T18:45:47.848Z,96.90
2018-10-21T18:49:52.650Z,96.80
2018-10-21T18:53:57.333Z,96.90
2018-10-21T18:58:02.282Z,96.80
2018-10-21T19:02:07.272Z,96.80
2018-10-21T19:06:12.112Z,96.80
2018-10-21T19:10:17.127Z,96.80
2018-10-21T19:14:21.754Z,96.80
2018-10-21T19:18:26.599Z,96.90
2018-10-21T19:22:31.459Z,96.90
2018-10-21T19:28:01.743Z,96.80
2018-10-21T19:32:06.801Z,96.80
2018-10-21T19:36:11.663Z,96.80
2018-10-21T19:40:16.718Z,96.90
2018-10-21T19:44:21.387Z,96.90
2018-10-21T19:48:26.102Z,97.00
2018-10-21T19:52:31.327Z,97.10
2018-10-21T19:56:36.806Z,97.20
2018-10-21T20:00:41.588Z,97.20
2018-10-21T20:04:46.334Z,97.30
2018-10-21T20:08:51.574Z,97.40
2018-10-21T20:12:56.468Z,97.50
2018-10-21T20:17:02.278Z,97.50
2018-10-21T20:21:07.406Z,97.60
2018-10-21T20:25:12.322Z,97.70
2018-10-21T20:29:17.093Z,97.80
2018-10-21T20:33:22.272Z,98.10
2018-10-21T20:37:26.949Z,98.40
2018-10-21T20:41:31.924Z,98.50
2018-10-21T20:45:38.429Z,99.00
2018-10-21T20:49:43.270Z,99.00
2018-10-21T20:53:48.402Z,99.10
2018-10-21T20:57:53.806Z,99.40
2018-10-21T21:01:58.831Z,99.70
2018-10-21T21:06:04.012Z,99.50
2018-10-21T21:10:14.110Z,99.70
2018-10-21T21:14:20.009Z,99.90
2018-10-21T21:18:26.544Z,99.90
2018-10-21T21:22:37.123Z,99.90
2018-10-21T21:26:46.175Z,99.90
2018-10-21T21:30:52.905Z,99.90
2018-10-21T21:34:58.402Z,99.90
2018-10-21T21:39:13.738Z,99.90
2018-10-21T21:43:20.320Z,99.90
2018-10-21T21:47:25.503Z,99.90
2018-10-21T21:51:30.543Z,99.90
2018-10-21T21:55:36.646Z,99.90
2018-10-21T21:59:41.611Z,99.90
2018-10-21T22:03:46.549Z,99.90
2018-10-21T22:07:51.516Z,99.90
2018-10-21T22:11:57.499Z,99.90
2018-10-21T22:16:04.455Z,99.90
2018-10-21T22:20:09.515Z,99.90
2018-10-21T22:24:14.380Z,99.90
2018-10-21T22:28:19.266Z,99.90
2018-10-21T22:32:24.521Z,99.90
2018-10-21T22:36:29.768Z,99.90
2018-10-21T22:40:34.824Z,99.90
2018-10-21T22:44:39.922Z,99.90
2018-10-21T22:48:44.676Z,99.90
2018-10-21T22:52:49.763Z,99.90
2018-10-21T22:56:55.727Z,99.90
2018-10-21T23:01:02.180Z,99.90
2018-10-21T23:05:09.056Z,99.90
2018-10-21T23:09:14.480Z,99.90
2018-10-21T23:13:19.665Z,99.90
2018-10-21T23:17:24.564Z,99.90
2018-10-21T23:21:29.419Z,99.90
2018-10-21T23:25:34.890Z,99.90
2018-10-21T23:29:40.829Z,99.90
2018-10-21T23:33:49.600Z,99.90
2018-10-21T23:37:54.543Z,99.90
2018-10-21T23:42:00.452Z,99.90
2018-10-21T23:46:07.346Z,99.90
2018-10-21T23:50:12.815Z,99.90
2018-10-21T23:54:17.864Z,99.90
2018-10-21T23:58:22.867Z,99.90
